Tefft, Indiana
Current Conditions -  °F | °C
As of 11:56 PM on Monday 20 Oct 2014 (Local Time) from KVPZ Reporting Station
Overcast Overcast  
Wind Chill: 50°   Ceiling: 5000
Heat Index: 50°   Visibility: 10mi
Dew Point: 44°   Wind: 3mph
Humidity: 80%   Direction: 350°N
Pressure: 29.98"   Gusts: NA
Location:  41.2°N, 86.97°W
Report Text: KVPZ 210456Z AUTO 35003KT 10SM OVC050 10/07 A2998 RMK AO2 RAE0358 SLP153 P0000 T01000067 TSNO
Loading
Personal Weather Stations






























Interactive Weather Map
Tropical Storm Tracking
New forecast layout! Learn more

10-Day Weather Forecast

Advertisements
Track Severe Weather on mobile